createdAt,value
2022-10-19T00:01:26.843Z,34.13
2022-10-19T00:03:56.985Z,34.11
2022-10-19T00:06:27.928Z,34.28
2022-10-19T00:08:59.516Z,34.42
2022-10-19T00:11:29.524Z,34.20
2022-10-19T00:14:00.539Z,34.20
2022-10-19T00:16:32.133Z,34.25
2022-10-19T00:19:03.121Z,33.90
2022-10-19T00:21:31.464Z,35.05
2022-10-19T00:24:00.293Z,35.66
2022-10-19T00:26:29.082Z,36.98
2022-10-19T00:28:59.379Z,37.92
2022-10-19T00:31:28.509Z,38.31
2022-10-19T00:33:58.270Z,38.35
2022-10-19T00:36:29.365Z,38.04
2022-10-19T00:38:58.685Z,38.82
2022-10-19T00:41:29.545Z,38.42
2022-10-19T00:44:03.377Z,37.83
2022-10-19T00:46:33.762Z,38.17
2022-10-19T00:49:09.979Z,38.37
2022-10-19T00:51:43.401Z,36.93
2022-10-19T00:54:13.865Z,36.66
2022-10-19T00:56:45.081Z,37.29
2022-10-19T00:59:17.593Z,38.00
2022-10-19T01:01:47.388Z,38.95
2022-10-19T01:04:16.875Z,39.30
2022-10-19T01:06:45.499Z,39.72
2022-10-19T01:09:14.410Z,39.83
2022-10-19T01:11:54.612Z,39.88
2022-10-19T01:14:34.705Z,40.10
2022-10-19T01:17:12.547Z,40.02
2022-10-19T01:20:10.172Z,39.31
2022-10-19T01:22:57.900Z,39.24
2022-10-19T01:25:40.563Z,38.77
2022-10-19T01:28:26.202Z,38.87
2022-10-19T01:31:03.012Z,38.89
2022-10-19T01:33:46.760Z,38.53
2022-10-19T01:36:24.416Z,39.23
2022-10-19T01:39:00.412Z,38.61
2022-10-19T01:41:36.969Z,38.60
2022-10-19T01:44:12.332Z,38.74
2022-10-19T01:46:45.769Z,38.88
2022-10-19T01:49:21.538Z,39.07
2022-10-19T01:51:55.150Z,39.21
2022-10-19T01:54:26.256Z,39.72
2022-10-19T01:56:57.488Z,39.54
2022-10-19T01:59:28.008Z,39.88
2022-10-19T02:01:59.654Z,40.17
2022-10-19T02:04:28.404Z,40.65
2022-10-19T02:06:58.419Z,40.63
2022-10-19T02:09:26.821Z,40.17
2022-10-19T02:12:01.686Z,40.37
2022-10-19T02:14:33.636Z,40.74
2022-10-19T02:17:09.194Z,40.82
2022-10-19T02:19:38.066Z,41.07
2022-10-19T02:22:07.275Z,41.64
2022-10-19T02:24:35.731Z,41.89
2022-10-19T02:27:06.549Z,41.98
2022-10-19T02:29:35.962Z,42.25
2022-10-19T02:32:06.752Z,42.77
2022-10-19T02:34:36.464Z,43.01
2022-10-19T02:37:05.786Z,43.29
2022-10-19T02:39:34.977Z,43.47
2022-10-19T02:42:10.936Z,44.22
2022-10-19T02:44:44.117Z,44.55
2022-10-19T02:47:19.943Z,45.06
2022-10-19T02:49:50.301Z,45.02
2022-10-19T02:52:19.304Z,45.42
2022-10-19T02:54:47.842Z,45.54
2022-10-19T02:57:18.634Z,45.88
2022-10-19T02:59:47.695Z,46.37
2022-10-19T03:02:19.676Z,46.58
2022-10-19T03:04:48.967Z,46.69
2022-10-19T03:07:20.204Z,47.37
2022-10-19T03:09:48.968Z,48.47
2022-10-19T03:12:17.869Z,48.08
2022-10-19T03:14:46.458Z,48.34
2022-10-19T03:17:15.377Z,48.77
2022-10-19T03:19:45.483Z,49.14
2022-10-19T03:22:15.115Z,48.76
2022-10-19T03:24:43.568Z,48.57
2022-10-19T03:27:12.269Z,49.45
2022-10-19T03:29:40.644Z,49.64
2022-10-19T03:32:09.322Z,49.50
2022-10-19T03:34:37.772Z,49.61
2022-10-19T03:37:08.683Z,50.56
2022-10-19T03:39:37.294Z,50.61
2022-10-19T03:42:06.261Z,50.80
2022-10-19T03:44:34.690Z,50.96
2022-10-19T03:47:03.537Z,51.16
2022-10-19T03:49:34.542Z,51.08
2022-10-19T03:52:07.150Z,51.85
2022-10-19T03:54:35.527Z,52.01
2022-10-19T03:57:04.677Z,52.27
2022-10-19T03:59:33.295Z,53.07
2022-10-19T04:02:01.953Z,52.99
2022-10-19T04:04:30.906Z,53.42
2022-10-19T04:06:59.580Z,53.67
2022-10-19T04:09:29.796Z,53.50
2022-10-19T04:11:58.659Z,54.71
2022-10-19T04:14:33.241Z,55.23
2022-10-19T04:17:10.575Z,55.60
2022-10-19T04:19:39.049Z,56.08
2022-10-19T04:22:07.797Z,56.12
2022-10-19T04:24:37.524Z,55.54
2022-10-19T04:27:06.194Z,55.63
2022-10-19T04:29:34.681Z,56.27
2022-10-19T04:32:03.276Z,56.97
2022-10-19T04:34:33.324Z,56.69
2022-10-19T04:37:03.949Z,57.00
2022-10-19T04:39:32.383Z,57.39
2022-10-19T04:42:02.455Z,57.64
2022-10-19T04:44:30.907Z,57.39
2022-10-19T04:46:59.571Z,57.18
2022-10-19T04:49:27.987Z,57.64
2022-10-19T04:51:56.583Z,57.78
2022-10-19T04:54:25.315Z,57.66
2022-10-19T04:56:54.291Z,58.29
2022-10-19T04:59:24.108Z,59.39
2022-10-19T05:01:53.100Z,58.92
2022-10-19T05:04:21.556Z,58.36
2022-10-19T05:06:50.177Z,58.47
2022-10-19T05:09:18.592Z,58.75
2022-10-19T05:11:47.297Z,59.44
2022-10-19T05:14:16.173Z,59.67
2022-10-19T05:16:46.323Z,59.62
2022-10-19T05:19:15.430Z,59.49
2022-10-19T05:21:44.079Z,59.66
2022-10-19T05:24:14.337Z,59.02
2022-10-19T05:26:43.434Z,59.84
2022-10-19T05:29:14.142Z,59.36
2022-10-19T05:31:43.295Z,59.96
2022-10-19T05:34:13.181Z,60.62
2022-10-19T05:36:42.345Z,60.49
2022-10-19T05:39:14.415Z,60.48
2022-10-19T05:41:44.883Z,60.21
2022-10-19T05:44:16.261Z,61.33
2022-10-19T05:46:45.542Z,60.85
2022-10-19T05:49:16.390Z,60.49
2022-10-19T05:51:45.608Z,60.54
2022-10-19T05:54:15.584Z,60.80
2022-10-19T05:56:44.771Z,60.06
2022-10-19T05:59:17.408Z,59.82
2022-10-19T06:01:46.509Z,59.04
2022-10-19T06:06:45.965Z,59.57
2022-10-19T06:09:14.528Z,58.96
2022-10-19T06:11:44.056Z,58.95
2022-10-19T06:14:14.961Z,59.05
2022-10-19T06:16:46.009Z,58.56
2022-10-19T06:19:16.240Z,58.01
2022-10-19T06:21:46.569Z,57.24
2022-10-19T06:24:15.291Z,57.09
2022-10-19T06:26:43.959Z,57.25
2022-10-19T06:29:12.606Z,56.65
2022-10-19T06:31:41.317Z,56.83
2022-10-19T06:34:09.828Z,56.69
2022-10-19T06:36:39.882Z,56.92
2022-10-19T06:39:08.597Z,56.27
2022-10-19T06:41:37.222Z,55.73
2022-10-19T06:44:20.138Z,55.70
2022-10-19T06:46:48.878Z,56.49
2022-10-19T06:49:17.512Z,55.81
2022-10-19T06:51:47.682Z,55.88
2022-10-19T06:54:16.063Z,55.07
2022-10-19T06:56:44.831Z,54.79
2022-10-19T06:59:14.843Z,54.23
2022-10-19T07:01:43.748Z,54.66
2022-10-19T07:04:12.175Z,54.23
2022-10-19T07:06:40.959Z,54.52
2022-10-19T07:09:10.746Z,54.32
2022-10-19T07:11:43.584Z,56.53
2022-10-19T07:14:14.226Z,56.81
2022-10-19T07:16:42.861Z,56.09
2022-10-19T07:19:11.726Z,55.59
2022-10-19T07:21:41.801Z,56.40
2022-10-19T07:24:11.793Z,55.49
2022-10-19T07:26:40.524Z,55.73
2022-10-19T07:29:08.995Z,55.87
2022-10-19T07:31:38.567Z,55.01
2022-10-19T07:34:07.079Z,55.59
2022-10-19T07:36:37.218Z,55.19
2022-10-19T07:39:07.337Z,56.02
2022-10-19T07:41:38.025Z,54.84
2022-10-19T07:44:07.466Z,53.49
2022-10-19T07:46:38.637Z,54.79
2022-10-19T07:49:10.793Z,54.17
2022-10-19T07:51:40.776Z,53.83
2022-10-19T07:54:09.490Z,53.86
2022-10-19T07:56:39.605Z,52.87
2022-10-19T07:59:08.140Z,51.65
2022-10-19T08:01:42.232Z,51.35
2022-10-19T08:04:49.051Z,51.03
2022-10-19T08:06:59.735Z,51.44
2022-10-19T08:09:51.444Z,50.36
2022-10-19T08:12:18.409Z,49.97
2022-10-19T08:14:48.001Z,50.93
2022-10-19T08:17:17.826Z,52.81
2022-10-19T08:19:47.178Z,51.69
2022-10-19T08:22:15.998Z,52.34
2022-10-19T08:24:44.376Z,51.66
2022-10-19T08:27:14.836Z,51.49
2022-10-19T08:29:45.094Z,52.72
2022-10-19T08:32:13.823Z,52.77
2022-10-19T08:34:42.424Z,52.09
2022-10-19T08:37:20.175Z,52.24
2022-10-19T08:39:59.668Z,50.93
2022-10-19T08:42:41.448Z,50.33
2022-10-19T08:45:28.064Z,51.38
2022-10-19T08:48:06.925Z,50.86
2022-10-19T08:50:40.429Z,50.15
2022-10-19T08:53:14.658Z,50.35
2022-10-19T08:55:54.716Z,52.27
2022-10-19T08:58:40.525Z,54.27
2022-10-19T09:01:17.180Z,55.07
2022-10-19T09:03:55.539Z,54.70
2022-10-19T09:06:30.363Z,54.77
2022-10-19T09:08:59.754Z,56.26
2022-10-19T09:11:32.393Z,55.78
2022-10-19T09:14:06.879Z,55.53
2022-10-19T09:16:36.705Z,54.08
2022-10-19T09:19:16.680Z,53.01
2022-10-19T09:21:49.846Z,52.23
2022-10-19T09:24:30.114Z,51.35
2022-10-19T09:27:01.473Z,52.42
2022-10-19T09:29:38.210Z,53.47
2022-10-19T09:32:26.753Z,52.85
2022-10-19T09:35:01.151Z,52.72
2022-10-19T09:40:04.376Z,51.20
2022-10-19T09:42:34.824Z,50.13
2022-10-19T09:45:14.519Z,49.40
2022-10-19T09:47:48.939Z,48.19
2022-10-19T09:50:20.388Z,47.02
2022-10-19T09:52:50.043Z,48.29
2022-10-19T09:55:26.256Z,49.30
2022-10-19T09:58:02.233Z,47.37
2022-10-19T10:00:37.288Z,47.85
2022-10-19T10:03:08.868Z,47.56
2022-10-19T10:05:39.870Z,47.28
2022-10-19T10:08:15.730Z,47.22
2022-10-19T10:10:47.208Z,47.29
2022-10-19T10:13:19.402Z,47.91
2022-10-19T10:15:52.273Z,47.01
2022-10-19T10:18:24.628Z,47.10
2022-10-19T10:21:06.997Z,46.20
2022-10-19T10:23:37.603Z,45.30
2022-10-19T10:26:18.378Z,43.96
2022-10-19T10:28:51.874Z,45.09
2022-10-19T10:31:25.114Z,45.87
2022-10-19T10:34:06.394Z,45.64
2022-10-19T10:36:45.946Z,46.02
2022-10-19T10:39:18.546Z,45.92
2022-10-19T10:41:50.068Z,44.97
2022-10-19T10:44:22.272Z,45.52
2022-10-19T10:46:57.001Z,44.84
2022-10-19T10:49:29.901Z,43.62
2022-10-19T10:52:02.475Z,43.64
2022-10-19T10:54:33.256Z,43.82
2022-10-19T10:57:14.154Z,43.86
2022-10-19T10:59:55.438Z,44.32
2022-10-19T11:02:32.966Z,43.70
2022-10-19T11:05:08.580Z,42.59
2022-10-19T11:07:41.643Z,42.09
2022-10-19T11:10:21.283Z,41.34
2022-10-19T11:12:56.355Z,41.55
2022-10-19T11:18:09.393Z,40.55
2022-10-19T11:20:45.834Z,40.44
2022-10-19T11:23:20.819Z,41.08
2022-10-19T11:26:05.121Z,40.43
2022-10-19T11:28:49.981Z,41.10
2022-10-19T11:31:23.972Z,41.19
2022-10-19T11:34:02.586Z,41.80
2022-10-19T11:36:47.613Z,41.89
2022-10-19T11:39:36.887Z,41.82
2022-10-19T11:42:13.299Z,41.29
2022-10-19T11:44:54.819Z,40.54
2022-10-19T11:47:36.858Z,41.13
2022-10-19T11:50:19.454Z,40.40
2022-10-19T11:52:58.119Z,40.65
2022-10-19T11:55:38.796Z,40.47
2022-10-19T11:58:32.345Z,40.78
2022-10-19T12:01:13.132Z,41.12
2022-10-19T12:04:24.664Z,41.04
2022-10-19T12:07:03.909Z,40.54
2022-10-19T12:09:47.912Z,41.67
2022-10-19T12:12:27.406Z,41.64
2022-10-19T12:15:04.625Z,42.43
2022-10-19T12:17:38.969Z,42.85
2022-10-19T12:20:19.867Z,43.49
2022-10-19T12:22:50.572Z,43.07
2022-10-19T12:25:22.058Z,43.75
2022-10-19T12:27:51.839Z,44.57
2022-10-19T12:30:22.346Z,45.28
2022-10-19T12:33:10.329Z,45.29
2022-10-19T12:35:54.463Z,45.29
2022-10-19T12:38:29.196Z,45.82
2022-10-19T12:41:08.039Z,45.23
2022-10-19T12:43:44.439Z,44.83
2022-10-19T12:46:25.175Z,45.00
2022-10-19T12:49:27.133Z,46.21
2022-10-19T12:51:56.800Z,45.42
2022-10-19T12:54:27.350Z,46.52
2022-10-19T12:56:59.621Z,46.57
2022-10-19T12:59:31.525Z,46.45
2022-10-19T13:02:02.297Z,46.07
2022-10-19T13:04:33.944Z,45.68
2022-10-19T13:07:05.668Z,46.90
2022-10-19T13:09:36.894Z,46.16
2022-10-19T13:12:44.882Z,46.92
2022-10-19T13:15:59.401Z,47.04
2022-10-19T13:19:07.639Z,46.52
2022-10-19T13:21:52.305Z,46.34
2022-10-19T13:24:32.718Z,47.69
2022-10-19T13:27:40.370Z,48.69
2022-10-19T13:30:50.820Z,48.28
2022-10-19T13:33:46.080Z,48.77
2022-10-19T13:36:14.997Z,49.51
2022-10-19T13:38:46.774Z,50.81
2022-10-19T13:41:25.310Z,51.12
2022-10-19T13:44:03.418Z,51.77
2022-10-19T13:46:53.082Z,52.44
2022-10-19T13:49:50.768Z,53.32
2022-10-19T13:52:45.943Z,53.65
2022-10-19T13:55:29.609Z,55.89
2022-10-19T13:58:24.044Z,56.60
2022-10-19T14:01:12.066Z,57.10
2022-10-19T14:03:59.522Z,57.06
2022-10-19T14:06:35.134Z,54.60
2022-10-19T14:09:45.642Z,55.26
2022-10-19T14:12:23.621Z,54.93
2022-10-19T14:14:53.566Z,54.30
2022-10-19T14:17:25.509Z,55.60
2022-10-19T14:19:57.119Z,57.43
2022-10-19T14:22:29.927Z,58.32
2022-10-19T14:25:02.663Z,57.09
2022-10-19T14:27:34.690Z,57.64
2022-10-19T14:30:03.491Z,56.14
2022-10-19T14:32:35.343Z,56.39
2022-10-19T14:35:14.576Z,55.58
2022-10-19T14:37:45.425Z,54.62
2022-10-19T14:40:27.756Z,54.58
2022-10-19T14:42:59.434Z,54.74
2022-10-19T14:45:30.104Z,54.05
2022-10-19T14:48:02.057Z,54.10
2022-10-19T14:50:42.583Z,53.67
2022-10-19T14:53:28.037Z,52.98
2022-10-19T14:56:02.595Z,52.82
2022-10-19T14:58:39.829Z,52.69
2022-10-19T15:01:10.600Z,52.46
2022-10-19T15:03:44.000Z,52.24
2022-10-19T15:06:19.955Z,51.64
2022-10-19T15:11:30.104Z,52.16
2022-10-19T15:14:04.979Z,51.63
2022-10-19T15:16:43.182Z,51.78
2022-10-19T15:19:23.034Z,51.99
2022-10-19T15:22:17.447Z,51.85
2022-10-19T15:24:58.856Z,52.13
2022-10-19T15:27:33.514Z,51.75
2022-10-19T15:30:07.108Z,51.69
2022-10-19T15:32:38.734Z,51.61
2022-10-19T15:35:13.667Z,52.00
2022-10-19T15:37:45.042Z,51.93
2022-10-19T15:40:20.633Z,52.39
2022-10-19T15:42:49.200Z,51.96
2022-10-19T15:45:35.565Z,52.13
2022-10-19T15:48:24.934Z,52.08
2022-10-19T15:50:54.287Z,52.21
2022-10-19T15:53:23.339Z,52.50
2022-10-19T15:55:52.040Z,52.52
2022-10-19T15:58:45.640Z,52.39
2022-10-19T16:01:18.491Z,52.98
2022-10-19T16:03:47.589Z,54.42
2022-10-19T16:06:17.499Z,53.65
2022-10-19T16:08:46.984Z,54.13
2022-10-19T16:11:17.496Z,55.16
2022-10-19T16:13:46.103Z,55.67
2022-10-19T16:16:23.124Z,58.91
2022-10-19T16:18:52.112Z,60.08
2022-10-19T16:21:22.430Z,60.54
2022-10-19T16:23:51.007Z,60.26
2022-10-19T16:26:20.508Z,58.99
2022-10-19T16:28:49.729Z,58.32
2022-10-19T16:31:20.008Z,58.58
2022-10-19T16:33:48.913Z,58.03
2022-10-19T16:36:20.167Z,58.44
2022-10-19T16:38:49.252Z,57.83
2022-10-19T16:41:18.565Z,57.14
2022-10-19T16:43:49.266Z,56.24
2022-10-19T16:46:22.789Z,55.71
2022-10-19T16:48:51.696Z,53.69
2022-10-19T16:51:25.214Z,53.65
2022-10-19T16:53:57.122Z,51.91
2022-10-19T16:56:28.025Z,51.90
2022-10-19T16:58:58.505Z,50.87
2022-10-19T17:01:29.805Z,50.04
2022-10-19T17:03:58.944Z,50.13
2022-10-19T17:06:29.564Z,49.77
2022-10-19T17:09:30.225Z,49.41
2022-10-19T17:11:49.039Z,49.16
2022-10-19T17:14:17.442Z,48.00
2022-10-19T17:16:47.991Z,48.32
2022-10-19T17:19:16.406Z,48.37
2022-10-19T17:21:45.089Z,48.59
2022-10-19T17:24:20.362Z,48.71
2022-10-19T17:26:52.024Z,49.19
2022-10-19T17:29:21.357Z,49.04
2022-10-19T17:31:51.955Z,49.25
2022-10-19T17:34:20.500Z,49.38
2022-10-19T17:36:49.430Z,49.62
2022-10-19T17:39:19.665Z,49.86
2022-10-19T17:41:50.488Z,50.01
2022-10-19T17:44:20.792Z,50.27
2022-10-19T17:46:49.415Z,50.97
2022-10-19T17:49:20.125Z,50.90
2022-10-19T17:51:48.830Z,51.03
2022-10-19T17:54:17.274Z,51.20
2022-10-19T17:56:46.243Z,51.59
2022-10-19T17:59:14.995Z,51.78
2022-10-19T18:01:43.640Z,52.07
2022-10-19T18:04:11.965Z,52.16
2022-10-19T18:06:42.079Z,52.31
2022-10-19T18:09:11.059Z,52.30
2022-10-19T18:11:42.345Z,52.56
2022-10-19T18:14:12.016Z,52.58
2022-10-19T18:16:44.603Z,51.89
2022-10-19T18:19:14.545Z,52.56
2022-10-19T18:21:46.619Z,52.85
2022-10-19T18:24:19.558Z,52.66
2022-10-19T18:26:49.174Z,53.09
2022-10-19T18:29:20.477Z,53.24
2022-10-19T18:31:52.254Z,53.06
2022-10-19T18:34:23.055Z,53.08
2022-10-19T18:36:54.126Z,53.12
2022-10-19T18:39:23.647Z,53.04
2022-10-19T18:41:54.570Z,53.01
2022-10-19T18:44:27.129Z,53.50
2022-10-19T18:46:58.327Z,52.95
2022-10-19T18:49:27.064Z,53.40
2022-10-19T18:51:57.100Z,53.99
2022-10-19T18:54:26.399Z,55.00
2022-10-19T18:56:55.834Z,54.46
2022-10-19T18:59:24.656Z,54.98
2022-10-19T19:01:53.650Z,55.06
2022-10-19T19:04:22.121Z,54.49
2022-10-19T19:06:50.869Z,54.72
2022-10-19T19:09:21.248Z,54.49
2022-10-19T19:11:51.486Z,54.34
2022-10-19T19:14:21.941Z,54.59
2022-10-19T19:16:50.684Z,53.91
2022-10-19T19:19:20.861Z,53.87
2022-10-19T19:21:50.280Z,53.60
2022-10-19T19:24:22.950Z,53.57
2022-10-19T19:26:53.812Z,53.47
2022-10-19T19:29:23.361Z,53.80
2022-10-19T19:31:53.479Z,54.25
2022-10-19T19:34:22.438Z,53.86
2022-10-19T19:36:51.129Z,53.82
2022-10-19T19:39:22.220Z,53.82
2022-10-19T19:41:51.420Z,54.34
2022-10-19T19:44:20.208Z,54.10
2022-10-19T19:46:49.569Z,54.06
2022-10-19T19:49:18.452Z,53.74
2022-10-19T19:51:47.156Z,53.48
2022-10-19T19:54:15.549Z,53.84
2022-10-19T19:56:45.563Z,52.87
2022-10-19T19:59:14.336Z,53.13
2022-10-19T20:01:43.141Z,53.07
2022-10-19T20:04:12.451Z,51.88
2022-10-19T20:06:44.486Z,51.83
2022-10-19T20:09:13.150Z,51.68
2022-10-19T20:11:42.898Z,51.22
2022-10-19T20:14:13.484Z,51.51
2022-10-19T20:16:42.429Z,50.92
2022-10-19T20:19:12.905Z,50.56
2022-10-19T20:21:42.455Z,50.61
2022-10-19T20:24:11.397Z,49.87
2022-10-19T20:26:40.309Z,49.95
2022-10-19T20:29:08.775Z,49.84
2022-10-19T20:31:40.596Z,48.80
2022-10-19T20:34:11.016Z,48.72
2022-10-19T20:36:39.872Z,48.47
2022-10-19T20:39:08.486Z,49.63
2022-10-19T20:41:37.308Z,49.65
2022-10-19T20:44:05.911Z,48.99
2022-10-19T20:46:37.000Z,48.94
2022-10-19T20:49:07.497Z,48.58
2022-10-19T20:51:38.067Z,47.94
2022-10-19T20:54:09.500Z,47.42
2022-10-19T20:56:39.792Z,47.35
2022-10-19T20:59:09.972Z,47.07
2022-10-19T21:01:41.086Z,46.98
2022-10-19T21:04:13.981Z,46.34
2022-10-19T21:06:44.484Z,46.58
2022-10-19T21:09:13.890Z,46.85
2022-10-19T21:11:43.834Z,46.35
2022-10-19T21:14:14.153Z,46.61
2022-10-19T21:16:43.233Z,46.03
2022-10-19T21:19:14.904Z,45.76
2022-10-19T21:21:45.799Z,45.85
2022-10-19T21:24:16.438Z,45.25
2022-10-19T21:26:45.689Z,45.00
2022-10-19T21:29:16.036Z,46.13
2022-10-19T21:31:48.890Z,45.79
2022-10-19T21:34:21.803Z,45.45
2022-10-19T21:36:50.780Z,45.13
2022-10-19T21:39:19.767Z,45.10
2022-10-19T21:41:49.189Z,45.11
2022-10-19T21:44:18.647Z,45.47
2022-10-19T21:46:49.124Z,45.25
2022-10-19T21:49:19.041Z,45.39
2022-10-19T21:51:50.154Z,45.26
2022-10-19T21:54:20.445Z,47.04
2022-10-19T21:56:49.464Z,47.92
2022-10-19T21:59:18.535Z,48.35
2022-10-19T22:01:47.139Z,49.78
2022-10-19T22:04:19.459Z,50.03
2022-10-19T22:06:48.528Z,49.77
2022-10-19T22:09:19.281Z,49.98
2022-10-19T22:11:48.889Z,51.27
2022-10-19T22:14:18.558Z,51.91
2022-10-19T22:16:47.355Z,50.84
2022-10-19T22:19:16.191Z,50.08
2022-10-19T22:21:46.341Z,49.06
2022-10-19T22:24:16.632Z,48.84
2022-10-19T22:26:47.390Z,48.52
2022-10-19T22:29:15.933Z,48.43
2022-10-19T22:31:45.031Z,48.59
2022-10-19T22:34:16.052Z,47.85
2022-10-19T22:36:46.453Z,47.87
2022-10-19T22:39:15.459Z,47.74
2022-10-19T22:41:44.230Z,47.49
2022-10-19T22:44:12.769Z,47.49
2022-10-19T22:46:41.900Z,47.42
2022-10-19T22:49:10.898Z,47.39
2022-10-19T22:51:39.684Z,47.79
2022-10-19T22:54:09.816Z,48.17
2022-10-19T22:56:39.142Z,48.27
2022-10-19T22:59:08.527Z,47.90
2022-10-19T23:01:37.801Z,49.40
2022-10-19T23:04:06.838Z,49.93
2022-10-19T23:06:36.119Z,49.65
2022-10-19T23:09:05.763Z,49.81
2022-10-19T23:11:36.620Z,50.65
2022-10-19T23:14:05.226Z,49.86
2022-10-19T23:16:34.134Z,50.25
2022-10-19T23:19:03.148Z,52.49
2022-10-19T23:21:32.554Z,51.52
2022-10-19T23:24:01.376Z,51.29
2022-10-19T23:26:30.604Z,50.51
2022-10-19T23:29:00.944Z,50.77
2022-10-19T23:31:31.159Z,50.51
2022-10-19T23:33:59.811Z,50.37
2022-10-19T23:36:30.215Z,50.52
2022-10-19T23:38:59.129Z,50.20
2022-10-19T23:41:28.024Z,50.47
2022-10-19T23:43:56.748Z,50.34
2022-10-19T23:46:27.056Z,50.53
2022-10-19T23:48:55.716Z,50.54
2022-10-19T23:51:25.016Z,50.88
2022-10-19T23:53:53.919Z,50.53
2022-10-19T23:56:24.804Z,50.59
2022-10-19T23:58:54.433Z,50.78
